createdAt,value
2023-01-01T00:00:48.899Z,6.15
2023-01-01T00:03:36.788Z,6.13
2023-01-01T00:06:09.263Z,6.32
2023-01-01T00:08:37.286Z,6.72
2023-01-01T00:11:07.337Z,6.82
2023-01-01T00:13:37.105Z,7.13
2023-01-01T00:16:14.454Z,7.35
2023-01-01T00:18:41.786Z,8.50
2023-01-01T00:21:14.137Z,8.48
2023-01-01T00:23:41.804Z,9.32
2023-01-01T00:26:15.345Z,10.52
2023-01-01T00:28:43.404Z,10.32
2023-01-01T00:31:22.269Z,10.20
2023-01-01T00:33:55.526Z,10.80
2023-01-01T00:36:25.334Z,12.10
2023-01-01T00:38:53.251Z,12.85
2023-01-01T00:41:20.622Z,14.23
2023-01-01T00:43:48.170Z,15.18
2023-01-01T00:46:16.017Z,14.90
2023-01-01T00:48:43.579Z,14.85
2023-01-01T00:51:10.641Z,14.40
2023-01-01T00:53:38.059Z,11.50
2023-01-01T00:56:06.388Z,10.38
2023-01-01T00:58:34.122Z,9.32
2023-01-01T01:01:01.193Z,7.70
2023-01-01T01:03:29.140Z,7.00
2023-01-01T01:06:10.324Z,6.82
2023-01-01T01:08:42.266Z,5.60
2023-01-01T01:11:12.441Z,6.15
2023-01-01T01:13:41.798Z,5.30
2023-01-01T01:16:15.983Z,4.88
2023-01-01T01:18:44.253Z,4.55
2023-01-01T01:21:15.742Z,3.50
2023-01-01T01:23:42.952Z,3.60
2023-01-01T01:26:23.466Z,3.40
2023-01-01T01:28:52.845Z,3.72
2023-01-01T01:31:22.318Z,3.92
2023-01-01T01:33:50.744Z,3.53
2023-01-01T01:36:19.238Z,3.05
2023-01-01T01:38:47.572Z,3.17
2023-01-01T01:41:27.302Z,3.13
2023-01-01T01:44:25.330Z,2.70
2023-01-01T01:46:52.387Z,2.90
2023-01-01T01:49:31.977Z,3.17
2023-01-01T01:52:01.978Z,2.97
2023-01-01T01:54:30.241Z,3.30
2023-01-01T01:57:06.503Z,3.65
2023-01-01T01:59:40.051Z,3.22
2023-01-01T02:02:18.665Z,4.35
2023-01-01T02:04:46.565Z,5.95
2023-01-01T02:07:15.469Z,10.57
2023-01-01T02:09:43.642Z,20.65
2023-01-01T02:12:10.851Z,17.50
2023-01-01T02:14:39.231Z,20.42
2023-01-01T02:17:39.146Z,22.73
2023-01-01T02:20:53.309Z,16.85
2023-01-01T02:26:56.974Z,10.95
2023-01-01T02:32:29.659Z,3.92
2023-01-01T02:35:35.590Z,3.70
2023-01-01T02:38:17.794Z,6.63
2023-01-01T02:40:50.252Z,8.30
2023-01-01T02:43:21.610Z,6.93
2023-01-01T02:45:53.836Z,4.10
2023-01-01T02:48:43.179Z,9.00
2023-01-01T02:52:01.168Z,9.18
2023-01-01T02:56:05.085Z,9.90
2023-01-01T02:58:59.814Z,10.32
2023-01-01T03:01:57.924Z,9.90
2023-01-01T03:05:03.471Z,9.85
2023-01-01T03:08:04.004Z,10.18
2023-01-01T03:10:46.827Z,9.90
2023-01-01T03:13:41.744Z,9.82
2023-01-01T03:16:48.802Z,9.63
2023-01-01T03:19:23.488Z,9.23
2023-01-01T03:22:15.173Z,9.80
2023-01-01T03:24:52.419Z,9.80
2023-01-01T03:28:38.492Z,9.48
2023-01-01T03:31:06.909Z,9.15
2023-01-01T03:33:44.830Z,10.23
2023-01-01T03:36:18.265Z,10.20
2023-01-01T03:39:12.928Z,11.02
2023-01-01T03:41:52.288Z,9.77
2023-01-01T03:44:33.360Z,11.88
2023-01-01T03:47:02.299Z,10.02
2023-01-01T03:49:31.029Z,10.27
2023-01-01T03:52:38.424Z,10.23
2023-01-01T03:55:18.098Z,8.80
2023-01-01T03:58:03.266Z,9.18
2023-01-01T04:04:51.344Z,9.23
2023-01-01T04:07:19.374Z,9.38
2023-01-01T04:09:51.996Z,9.82
2023-01-01T04:12:20.724Z,10.02
2023-01-01T04:14:47.995Z,10.57
2023-01-01T04:17:15.355Z,9.50
2023-01-01T04:19:42.353Z,9.90
2023-01-01T04:22:10.219Z,9.75
2023-01-01T04:25:10.743Z,10.02
2023-01-01T04:27:40.055Z,9.30
2023-01-01T04:34:34.335Z,9.93
2023-01-01T04:37:02.124Z,9.40
2023-01-01T04:39:29.354Z,9.45
2023-01-01T04:41:56.373Z,9.27
2023-01-01T04:44:23.495Z,8.95
2023-01-01T04:51:04.722Z,9.02
2023-01-01T04:54:19.050Z,8.32
2023-01-01T05:01:30.681Z,8.60
2023-01-01T05:03:59.937Z,8.25
2023-01-01T05:06:28.859Z,8.60
2023-01-01T05:08:57.438Z,7.85
2023-01-01T05:11:28.714Z,8.15
2023-01-01T05:13:59.375Z,8.30
2023-01-01T05:16:31.426Z,7.47
2023-01-01T05:19:00.566Z,8.27
2023-01-01T05:21:39.514Z,7.97
2023-01-01T05:24:09.970Z,8.48
2023-01-01T05:26:44.371Z,6.93
2023-01-01T05:29:16.691Z,8.85
2023-01-01T05:31:46.316Z,8.52
2023-01-01T05:34:13.329Z,8.43
2023-01-01T05:37:38.160Z,8.00
2023-01-01T05:40:06.526Z,8.73
2023-01-01T05:46:31.908Z,9.13
2023-01-01T05:48:59.625Z,8.68
2023-01-01T05:51:29.642Z,8.40
2023-01-01T05:53:58.459Z,8.55
2023-01-01T05:56:26.976Z,8.93
2023-01-01T06:13:40.488Z,9.02
2023-01-01T06:16:09.550Z,8.90
2023-01-01T06:18:36.783Z,10.35
2023-01-01T06:21:27.290Z,9.50
2023-01-01T06:39:27.474Z,8.30
2023-01-01T06:41:57.015Z,8.57
2023-01-01T06:44:23.968Z,8.25
2023-01-01T06:46:51.296Z,8.40
2023-01-01T06:51:12.204Z,8.68
2023-01-01T06:55:57.466Z,8.23
2023-01-01T06:58:49.076Z,8.70
2023-01-01T07:01:26.028Z,8.40
2023-01-01T07:04:02.238Z,8.65
2023-01-01T07:06:33.189Z,8.40
2023-01-01T07:09:01.581Z,7.75
2023-01-01T07:11:29.746Z,7.97
2023-01-01T07:14:02.380Z,8.90
2023-01-01T07:16:29.874Z,8.45
2023-01-01T07:18:57.609Z,9.27
2023-01-01T07:21:50.045Z,8.65
2023-01-01T07:32:44.027Z,9.30
2023-01-01T07:35:15.058Z,9.27
2023-01-01T07:37:48.432Z,8.95
2023-01-01T07:40:16.330Z,8.43
2023-01-01T07:42:43.463Z,9.38
2023-01-01T07:45:13.338Z,8.50
2023-01-01T07:47:40.496Z,8.30
2023-01-01T07:50:16.755Z,9.05
2023-01-01T07:52:43.822Z,10.98
2023-01-01T07:55:16.670Z,10.55
2023-01-01T07:57:45.328Z,8.52
2023-01-01T08:00:17.309Z,8.50
2023-01-01T08:02:46.312Z,7.68
2023-01-01T08:05:14.162Z,7.95
2023-01-01T08:07:49.906Z,7.60
2023-01-01T08:10:20.343Z,7.38
2023-01-01T08:14:03.931Z,8.05
2023-01-01T08:16:38.057Z,7.90
2023-01-01T08:19:05.867Z,8.25
2023-01-01T08:21:33.108Z,9.55
2023-01-01T08:24:00.188Z,9.57
2023-01-01T08:26:35.114Z,8.88
2023-01-01T08:29:06.106Z,8.50
2023-01-01T08:31:33.911Z,8.98
2023-01-01T08:34:00.879Z,8.80
2023-01-01T08:36:28.365Z,9.85
2023-01-01T08:38:55.314Z,10.25
2023-01-01T08:41:24.421Z,9.63
2023-01-01T08:43:51.553Z,10.10
2023-01-01T08:46:18.807Z,9.48
2023-01-01T08:48:45.882Z,9.02
2023-01-01T08:51:13.279Z,9.27
2023-01-01T08:53:43.049Z,10.20
2023-01-01T08:56:15.901Z,10.25
2023-01-01T08:58:43.733Z,10.10
2023-01-01T09:02:16.642Z,10.55
2023-01-01T09:05:20.768Z,10.65
2023-01-01T09:08:32.433Z,9.57
2023-01-01T09:11:02.812Z,9.38
2023-01-01T09:13:31.838Z,9.60
2023-01-01T09:16:04.698Z,11.85
2023-01-01T09:18:32.342Z,10.50
2023-01-01T09:20:59.448Z,9.95
2023-01-01T09:23:26.451Z,9.50
2023-01-01T09:25:53.625Z,9.52
2023-01-01T09:28:25.689Z,9.20
2023-01-01T09:30:53.419Z,9.00
2023-01-01T09:33:20.371Z,9.25
2023-01-01T09:35:47.707Z,8.90
2023-01-01T09:38:14.654Z,8.85
2023-01-01T09:41:12.413Z,8.27
2023-01-01T09:44:29.755Z,8.20
2023-01-01T09:47:03.971Z,8.60
2023-01-01T09:49:59.283Z,8.23
2023-01-01T09:52:44.623Z,7.97
2023-01-01T09:55:24.845Z,8.40
2023-01-01T09:57:52.735Z,7.68
2023-01-01T10:00:20.400Z,7.57
2023-01-01T10:03:15.522Z,8.02
2023-01-01T10:06:20.891Z,7.75
2023-01-01T10:09:09.810Z,8.07
2023-01-01T10:11:55.641Z,8.05
2023-01-01T10:14:39.750Z,7.60
2023-01-01T10:17:20.531Z,7.70
2023-01-01T10:19:56.441Z,7.37
2023-01-01T10:22:33.080Z,7.25
2023-01-01T10:25:09.284Z,7.38
2023-01-01T10:27:44.730Z,7.53
2023-01-01T10:30:23.350Z,7.03
2023-01-01T10:32:54.310Z,8.32
2023-01-01T10:35:32.747Z,7.35
2023-01-01T10:38:01.572Z,7.18
2023-01-01T10:40:31.429Z,7.47
2023-01-01T10:43:03.958Z,7.80
2023-01-01T10:45:42.097Z,7.18
2023-01-01T10:48:27.241Z,6.80
2023-01-01T10:51:00.510Z,6.60
2023-01-01T10:53:41.656Z,6.85
2023-01-01T10:56:16.766Z,7.07
2023-01-01T10:58:54.634Z,7.53
2023-01-01T11:01:24.943Z,7.20
2023-01-01T11:04:21.216Z,7.32
2023-01-01T11:06:48.833Z,7.50
2023-01-01T11:09:23.359Z,7.80
2023-01-01T11:12:09.711Z,7.45
2023-01-01T11:14:44.307Z,7.85
2023-01-01T11:19:48.579Z,7.30
2023-01-01T11:22:45.821Z,8.20
2023-01-01T11:25:34.172Z,7.38
2023-01-01T11:28:22.533Z,7.78
2023-01-01T11:31:17.229Z,8.25
2023-01-01T11:33:52.957Z,7.65
2023-01-01T11:36:34.267Z,7.30
2023-01-01T11:39:26.767Z,7.18
2023-01-01T11:41:57.676Z,6.95
2023-01-01T11:44:46.592Z,6.80
2023-01-01T11:47:37.164Z,7.55
2023-01-01T11:50:14.064Z,7.65
2023-01-01T11:52:44.411Z,6.85
2023-01-01T11:55:20.368Z,7.45
2023-01-01T11:57:56.469Z,7.03
2023-01-01T12:00:23.979Z,7.10
2023-01-01T12:03:11.675Z,6.82
2023-01-01T12:06:18.748Z,6.65
2023-01-01T12:09:00.168Z,6.68
2023-01-01T12:11:40.314Z,6.43
2023-01-01T12:14:19.331Z,6.20
2023-01-01T12:17:37.514Z,6.53
2023-01-01T12:20:40.335Z,6.88
2023-01-01T12:23:11.762Z,6.63
2023-01-01T12:25:49.459Z,6.18
2023-01-01T12:28:41.543Z,7.05
2023-01-01T12:31:33.442Z,6.15
2023-01-01T12:34:15.666Z,6.28
2023-01-01T12:37:09.341Z,6.47
2023-01-01T12:40:34.272Z,6.22
2023-01-01T12:43:40.103Z,6.15
2023-01-01T12:46:23.907Z,6.50
2023-01-01T12:49:30.403Z,6.45
2023-01-01T12:52:49.537Z,6.70
2023-01-01T12:55:20.802Z,7.43
2023-01-01T12:58:08.416Z,7.18
2023-01-01T13:00:42.237Z,7.30
2023-01-01T13:03:24.149Z,7.05
2023-01-01T13:06:24.944Z,6.93
2023-01-01T13:09:17.364Z,6.75
2023-01-01T13:11:52.751Z,7.18
2023-01-01T13:14:20.446Z,7.88
2023-01-01T13:16:58.011Z,7.38
2023-01-01T13:24:26.882Z,7.53
2023-01-01T13:26:54.947Z,6.93
2023-01-01T13:29:22.317Z,7.45
2023-01-01T13:31:49.266Z,7.93
2023-01-01T13:34:35.817Z,8.13
2023-01-01T13:37:14.582Z,7.65
2023-01-01T13:40:04.475Z,7.75
2023-01-01T13:42:52.258Z,7.72
2023-01-01T14:17:25.307Z,7.15
2023-01-01T14:19:53.270Z,7.57
2023-01-01T14:22:21.448Z,7.65
2023-01-01T14:24:48.632Z,7.88
2023-01-01T14:27:21.904Z,7.88
2023-01-01T14:29:51.645Z,7.90
2023-01-01T14:32:25.382Z,7.78
2023-01-01T14:40:30.542Z,7.05
2023-01-01T14:43:10.327Z,7.40
2023-01-01T14:45:43.531Z,7.20
2023-01-01T14:48:20.638Z,7.25
2023-01-01T14:50:51.911Z,7.20
2023-01-01T14:53:28.814Z,8.02
2023-01-01T14:55:57.380Z,9.70
2023-01-01T15:02:24.284Z,15.43
2023-01-01T15:04:52.393Z,14.23
2023-01-01T15:07:29.102Z,13.93
2023-01-01T15:10:03.338Z,13.32
2023-01-01T15:12:34.459Z,13.90
2023-01-01T15:15:01.996Z,14.20
2023-01-01T15:17:45.500Z,13.95
2023-01-01T15:20:23.205Z,13.60
2023-01-01T15:22:52.479Z,15.23
2023-01-01T15:25:20.670Z,14.43
2023-01-01T15:27:54.797Z,14.60
2023-01-01T15:30:31.692Z,13.57
2023-01-01T15:33:16.704Z,12.45
2023-01-01T15:35:50.525Z,12.15
2023-01-01T15:38:30.925Z,12.65
2023-01-01T15:40:58.110Z,11.38
2023-01-01T15:43:31.112Z,11.90
2023-01-01T15:46:20.970Z,12.52
2023-01-01T15:48:53.187Z,13.13
2023-01-01T15:51:25.243Z,12.55
2023-01-01T15:54:04.836Z,12.73
2023-01-01T15:56:40.060Z,13.57
2023-01-01T15:59:27.011Z,14.15
2023-01-01T16:02:13.340Z,14.88
2023-01-01T16:04:50.201Z,14.52
2023-01-01T16:07:23.270Z,14.13
2023-01-01T16:09:57.396Z,13.95
2023-01-01T16:12:25.704Z,13.82
2023-01-01T16:14:55.597Z,13.48
2023-01-01T16:19:52.254Z,13.48
2023-01-01T16:22:20.498Z,12.98
2023-01-01T16:24:47.566Z,13.57
2023-01-01T16:27:15.868Z,13.65
2023-01-01T16:29:43.853Z,14.85
2023-01-01T16:32:18.050Z,13.88
2023-01-01T16:34:45.257Z,13.70
2023-01-01T16:37:12.475Z,14.90
2023-01-01T16:39:39.501Z,14.32
2023-01-01T16:42:11.970Z,14.07
2023-01-01T16:44:42.001Z,13.93
2023-01-01T16:47:10.329Z,14.45
2023-01-01T16:49:38.587Z,13.55
2023-01-01T16:52:05.885Z,13.80
2023-01-01T16:54:33.702Z,13.65
2023-01-01T16:57:00.935Z,13.27
2023-01-01T16:59:27.969Z,13.32
2023-01-01T17:01:55.401Z,13.00
2023-01-01T17:04:22.717Z,13.02
2023-01-01T17:11:55.475Z,12.45
2023-01-01T17:14:22.475Z,13.30
2023-01-01T17:16:51.779Z,12.90
2023-01-01T17:19:18.760Z,12.80
2023-01-01T17:21:51.371Z,13.30
2023-01-01T17:24:36.747Z,13.02
2023-01-01T17:27:22.338Z,13.52
2023-01-01T17:35:42.869Z,13.15
2023-01-01T17:38:24.259Z,13.60
2023-01-01T17:41:10.717Z,12.60
2023-01-01T17:56:47.499Z,14.40
2023-01-01T17:59:16.138Z,14.73
2023-01-01T18:01:43.901Z,15.27
2023-01-01T18:04:14.412Z,16.33
2023-01-01T18:06:43.648Z,16.73
2023-01-01T18:09:13.802Z,16.45
2023-01-01T18:11:41.593Z,16.60
2023-01-01T18:14:10.842Z,16.58
2023-01-01T18:16:41.358Z,17.13
2023-01-01T18:19:50.910Z,17.17
2023-01-01T18:22:18.173Z,16.40
2023-01-01T18:24:45.318Z,17.60
2023-01-01T18:27:12.564Z,16.90
2023-01-01T18:29:39.800Z,17.67
2023-01-01T18:32:06.800Z,18.80
2023-01-01T18:34:33.977Z,18.98
2023-01-01T18:37:01.131Z,19.45
2023-01-01T18:43:25.098Z,19.60
2023-01-01T18:45:52.658Z,19.13
2023-01-01T18:48:21.771Z,18.83
2023-01-01T18:50:48.956Z,19.35
2023-01-01T18:53:23.066Z,19.08
2023-01-01T18:56:11.114Z,17.88
2023-01-01T18:58:42.719Z,18.17
2023-01-01T19:01:18.315Z,17.75
2023-01-01T19:03:50.686Z,17.55
2023-01-01T19:06:29.740Z,17.48
2023-01-01T19:09:18.466Z,17.05
2023-01-01T19:11:49.537Z,17.50
2023-01-01T19:14:25.569Z,16.38
2023-01-01T19:16:58.382Z,16.70
2023-01-01T19:19:29.339Z,15.82
2023-01-01T19:22:28.738Z,16.73
2023-01-01T19:24:55.826Z,17.25
2023-01-01T19:27:24.827Z,17.20
2023-01-01T19:29:52.636Z,16.65
2023-01-01T19:32:21.256Z,18.05
2023-01-01T19:34:48.526Z,20.17
2023-01-01T19:37:16.009Z,19.25
2023-01-01T19:39:43.775Z,19.25
2023-01-01T19:42:12.214Z,18.40
2023-01-01T19:44:39.950Z,18.35
2023-01-01T19:47:09.142Z,19.85
2023-01-01T19:49:36.435Z,20.73
2023-01-01T19:52:03.939Z,20.27
2023-01-01T19:54:30.973Z,19.55
2023-01-01T19:56:58.281Z,20.58
2023-01-01T19:59:32.851Z,19.48
2023-01-01T20:04:49.608Z,19.92
2023-01-01T20:07:17.465Z,19.83
2023-01-01T20:09:44.564Z,21.17
2023-01-01T20:12:11.823Z,21.02
2023-01-01T20:14:38.826Z,22.67
2023-01-01T20:17:06.254Z,21.20
2023-01-01T20:19:33.642Z,21.92
2023-01-01T20:22:14.054Z,21.08
2023-01-01T20:24:42.338Z,20.27
2023-01-01T20:27:10.168Z,20.77
2023-01-01T20:29:38.351Z,20.15
2023-01-01T20:32:15.603Z,19.98
2023-01-01T20:34:43.350Z,20.23
2023-01-01T20:37:29.942Z,21.65
2023-01-01T20:39:57.176Z,21.02
2023-01-01T20:42:24.683Z,21.20
2023-01-01T20:44:51.610Z,22.15
2023-01-01T20:47:18.930Z,23.45
2023-01-01T20:49:46.015Z,25.05
2023-01-01T20:52:13.356Z,25.20
2023-01-01T20:54:40.641Z,25.52
2023-01-01T20:57:07.910Z,26.38
2023-01-01T20:59:36.776Z,25.00
2023-01-01T21:02:11.470Z,23.45
2023-01-01T21:04:39.952Z,23.00
2023-01-01T21:07:10.695Z,23.58
2023-01-01T21:09:39.607Z,23.27
2023-01-01T21:12:08.518Z,22.45
2023-01-01T21:14:36.189Z,24.15
2023-01-01T21:17:23.600Z,24.40
2023-01-01T21:19:58.201Z,24.75
2023-01-01T21:22:27.663Z,23.75
2023-01-01T21:25:16.772Z,25.63
2023-01-01T21:27:44.600Z,24.52
2023-01-01T21:30:12.943Z,24.52
2023-01-01T21:32:49.421Z,23.75
2023-01-01T21:35:31.685Z,23.25
2023-01-01T21:38:00.946Z,23.77
2023-01-01T21:40:54.107Z,26.10
2023-01-01T21:43:31.920Z,26.77
2023-01-01T21:46:07.433Z,25.95
2023-01-01T21:49:36.626Z,24.52
2023-01-01T21:52:19.828Z,24.45
2023-01-01T21:54:48.775Z,23.85
2023-01-01T21:57:39.426Z,23.75
2023-01-01T22:00:19.983Z,22.23
2023-01-01T22:02:48.670Z,21.58
2023-01-01T22:06:58.564Z,23.08
2023-01-01T22:09:34.743Z,23.55
2023-01-01T22:12:14.047Z,24.20
2023-01-01T22:14:45.663Z,23.42
2023-01-01T22:17:23.746Z,23.83
2023-01-01T22:20:05.026Z,23.13
2023-01-01T22:27:35.740Z,21.77
2023-01-01T22:30:19.035Z,21.63
2023-01-01T22:32:53.630Z,21.77
2023-01-01T22:35:32.268Z,21.67
2023-01-01T22:38:06.854Z,21.40
2023-01-01T23:29:54.865Z,20.13
2023-01-01T23:32:22.207Z,20.67
2023-01-01T23:34:49.188Z,21.27
2023-01-01T23:37:16.971Z,19.60
2023-01-01T23:39:44.340Z,20.02
2023-01-01T23:42:11.581Z,19.40
2023-01-01T23:44:38.587Z,19.67
2023-01-01T23:47:05.871Z,19.45
2023-01-01T23:49:33.428Z,18.52
2023-01-01T23:52:02.379Z,18.55
2023-01-01T23:54:29.695Z,19.75
